sensor_id;sensor_type;location;lat;lon;timestamp;P1;durP1;ratioP1;P2;durP2;ratioP2
35648;SDS011;21768;48.562;13.414;2023-05-19T00:01:10;12.57;;;4.45;;
35648;SDS011;21768;48.562;13.414;2023-05-19T00:03:40;9.73;;;3.95;;
35648;SDS011;21768;48.562;13.414;2023-05-19T00:06:18;7.13;;;3.38;;
35648;SDS011;21768;48.562;13.414;2023-05-19T00:08:47;12.20;;;3.85;;
35648;SDS011;21768;48.562;13.414;2023-05-19T00:11:14;9.70;;;3.85;;
35648;SDS011;21768;48.562;13.414;2023-05-19T00:13:40;10.13;;;3.63;;
35648;SDS011;21768;48.562;13.414;2023-05-19T00:16:05;9.98;;;3.50;;
35648;SDS011;21768;48.562;13.414;2023-05-19T00:18:31;11.32;;;3.80;;
35648;SDS011;21768;48.562;13.414;2023-05-19T00:20:57;10.93;;;3.25;;
35648;SDS011;21768;48.562;13.414;2023-05-19T00:23:23;9.95;;;3.28;;
35648;SDS011;21768;48.562;13.414;2023-05-19T00:25:48;9.65;;;3.40;;
35648;SDS011;21768;48.562;13.414;2023-05-19T00:28:13;12.18;;;3.83;;
35648;SDS011;21768;48.562;13.414;2023-05-19T00:30:39;11.32;;;3.97;;
35648;SDS011;21768;48.562;13.414;2023-05-19T00:33:04;14.05;;;3.33;;
35648;SDS011;21768;48.562;13.414;2023-05-19T00:35:29;9.02;;;3.50;;
35648;SDS011;21768;48.562;13.414;2023-05-19T00:37:55;9.20;;;4.22;;
35648;SDS011;21768;48.562;13.414;2023-05-19T00:40:21;9.93;;;3.85;;
35648;SDS011;21768;48.562;13.414;2023-05-19T00:42:48;11.60;;;3.70;;
35648;SDS011;21768;48.562;13.414;2023-05-19T00:45:13;12.82;;;4.00;;
35648;SDS011;21768;48.562;13.414;2023-05-19T00:47:38;11.68;;;3.60;;
35648;SDS011;21768;48.562;13.414;2023-05-19T00:50:04;8.43;;;3.50;;
35648;SDS011;21768;48.562;13.414;2023-05-19T00:52:30;11.95;;;4.18;;
35648;SDS011;21768;48.562;13.414;2023-05-19T00:54:55;7.50;;;3.33;;
35648;SDS011;21768;48.562;13.414;2023-05-19T00:57:21;7.40;;;3.40;;
35648;SDS011;21768;48.562;13.414;2023-05-19T00:59:47;8.60;;;3.72;;
35648;SDS011;21768;48.562;13.414;2023-05-19T01:02:13;12.57;;;4.10;;
35648;SDS011;21768;48.562;13.414;2023-05-19T01:04:39;9.10;;;3.40;;
35648;SDS011;21768;48.562;13.414;2023-05-19T01:07:05;12.88;;;3.58;;
35648;SDS011;21768;48.562;13.414;2023-05-19T01:09:31;6.72;;;3.10;;
35648;SDS011;21768;48.562;13.414;2023-05-19T01:11:57;12.98;;;3.38;;
35648;SDS011;21768;48.562;13.414;2023-05-19T01:14:24;10.43;;;3.50;;
35648;SDS011;21768;48.562;13.414;2023-05-19T01:16:56;9.32;;;3.28;;
35648;SDS011;21768;48.562;13.414;2023-05-19T01:28:23;10.80;;;3.47;;
35648;SDS011;21768;48.562;13.414;2023-05-19T01:31:00;12.82;;;3.65;;
35648;SDS011;21768;48.562;13.414;2023-05-19T01:33:26;13.68;;;3.53;;
35648;SDS011;21768;48.562;13.414;2023-05-19T01:35:54;10.00;;;3.13;;
35648;SDS011;21768;48.562;13.414;2023-05-19T01:38:20;16.45;;;3.70;;
35648;SDS011;21768;48.562;13.414;2023-05-19T01:40:47;15.15;;;3.83;;
35648;SDS011;21768;48.562;13.414;2023-05-19T01:43:19;8.95;;;3.00;;
35648;SDS011;21768;48.562;13.414;2023-05-19T01:45:46;11.48;;;3.45;;
35648;SDS011;21768;48.562;13.414;2023-05-19T01:48:13;13.32;;;3.92;;
35648;SDS011;21768;48.562;13.414;2023-05-19T01:50:39;9.77;;;3.15;;
35648;SDS011;21768;48.562;13.414;2023-05-19T01:53:05;13.13;;;3.63;;
35648;SDS011;21768;48.562;13.414;2023-05-19T01:55:31;10.40;;;3.25;;
35648;SDS011;21768;48.562;13.414;2023-05-19T02:14:28;13.40;;;3.47;;
35648;SDS011;21768;48.562;13.414;2023-05-19T02:16:57;9.38;;;3.40;;
35648;SDS011;21768;48.562;13.414;2023-05-19T02:19:24;10.85;;;3.22;;
35648;SDS011;21768;48.562;13.414;2023-05-19T02:21:56;9.10;;;2.88;;
35648;SDS011;21768;48.562;13.414;2023-05-19T02:24:21;7.47;;;2.90;;
35648;SDS011;21768;48.562;13.414;2023-05-19T02:26:47;7.75;;;3.72;;
35648;SDS011;21768;48.562;13.414;2023-05-19T02:29:14;12.35;;;3.38;;
35648;SDS011;21768;48.562;13.414;2023-05-19T02:31:39;10.88;;;3.67;;
35648;SDS011;21768;48.562;13.414;2023-05-19T02:34:05;11.13;;;3.58;;
35648;SDS011;21768;48.562;13.414;2023-05-19T02:36:32;10.55;;;3.72;;
35648;SDS011;21768;48.562;13.414;2023-05-19T02:39:02;13.90;;;3.53;;
35648;SDS011;21768;48.562;13.414;2023-05-19T02:41:28;13.30;;;3.70;;
35648;SDS011;21768;48.562;13.414;2023-05-19T02:43:54;9.25;;;3.30;;
35648;SDS011;21768;48.562;13.414;2023-05-19T02:46:20;12.70;;;3.47;;
35648;SDS011;21768;48.562;13.414;2023-05-19T02:48:45;15.00;;;3.08;;
35648;SDS011;21768;48.562;13.414;2023-05-19T02:51:10;11.60;;;3.30;;
35648;SDS011;21768;48.562;13.414;2023-05-19T02:53:36;8.52;;;3.20;;
35648;SDS011;21768;48.562;13.414;2023-05-19T02:56:01;8.90;;;3.42;;
35648;SDS011;21768;48.562;13.414;2023-05-19T02:58:27;9.40;;;3.35;;
35648;SDS011;21768;48.562;13.414;2023-05-19T03:00:52;10.15;;;3.50;;
35648;SDS011;21768;48.562;13.414;2023-05-19T03:03:17;11.23;;;3.50;;
35648;SDS011;21768;48.562;13.414;2023-05-19T03:05:43;12.13;;;3.13;;
35648;SDS011;21768;48.562;13.414;2023-05-19T03:08:09;9.85;;;3.53;;
35648;SDS011;21768;48.562;13.414;2023-05-19T03:10:34;14.23;;;3.55;;
35648;SDS011;21768;48.562;13.414;2023-05-19T03:13:00;10.43;;;3.42;;
35648;SDS011;21768;48.562;13.414;2023-05-19T03:15:25;13.10;;;4.07;;
35648;SDS011;21768;48.562;13.414;2023-05-19T03:17:51;9.93;;;3.67;;
35648;SDS011;21768;48.562;13.414;2023-05-19T03:20:16;8.02;;;3.28;;
35648;SDS011;21768;48.562;13.414;2023-05-19T03:22:42;12.00;;;4.20;;
35648;SDS011;21768;48.562;13.414;2023-05-19T03:25:08;10.18;;;3.53;;
35648;SDS011;21768;48.562;13.414;2023-05-19T03:27:33;15.68;;;4.57;;
35648;SDS011;21768;48.562;13.414;2023-05-19T03:29:59;9.75;;;3.85;;
35648;SDS011;21768;48.562;13.414;2023-05-19T03:32:24;11.60;;;4.18;;
35648;SDS011;21768;48.562;13.414;2023-05-19T03:34:50;12.75;;;3.58;;
35648;SDS011;21768;48.562;13.414;2023-05-19T03:37:15;10.18;;;3.55;;
35648;SDS011;21768;48.562;13.414;2023-05-19T03:39:40;7.30;;;2.85;;
35648;SDS011;21768;48.562;13.414;2023-05-19T03:42:06;9.98;;;3.45;;
35648;SDS011;21768;48.562;13.414;2023-05-19T03:44:31;11.77;;;3.40;;
35648;SDS011;21768;48.562;13.414;2023-05-19T03:46:57;11.88;;;3.60;;
35648;SDS011;21768;48.562;13.414;2023-05-19T03:49:22;13.55;;;4.18;;
35648;SDS011;21768;48.562;13.414;2023-05-19T03:51:47;10.52;;;3.63;;
35648;SDS011;21768;48.562;13.414;2023-05-19T03:54:13;10.23;;;3.75;;
35648;SDS011;21768;48.562;13.414;2023-05-19T03:56:38;9.70;;;3.20;;
35648;SDS011;21768;48.562;13.414;2023-05-19T03:59:05;11.40;;;3.90;;
35648;SDS011;21768;48.562;13.414;2023-05-19T04:01:32;8.90;;;3.30;;
35648;SDS011;21768;48.562;13.414;2023-05-19T04:03:58;14.98;;;4.05;;
35648;SDS011;21768;48.562;13.414;2023-05-19T04:06:23;11.07;;;3.63;;
35648;SDS011;21768;48.562;13.414;2023-05-19T04:08:49;7.03;;;3.25;;
35648;SDS011;21768;48.562;13.414;2023-05-19T04:11:14;7.80;;;3.58;;
35648;SDS011;21768;48.562;13.414;2023-05-19T04:13:40;9.25;;;3.85;;
35648;SDS011;21768;48.562;13.414;2023-05-19T04:16:05;14.07;;;3.85;;
35648;SDS011;21768;48.562;13.414;2023-05-19T04:18:31;12.00;;;3.67;;
35648;SDS011;21768;48.562;13.414;2023-05-19T04:20:56;9.73;;;3.85;;
35648;SDS011;21768;48.562;13.414;2023-05-19T04:23:21;12.35;;;3.42;;
35648;SDS011;21768;48.562;13.414;2023-05-19T04:25:47;15.18;;;3.97;;
35648;SDS011;21768;48.562;13.414;2023-05-19T04:28:13;12.70;;;4.18;;
35648;SDS011;21768;48.562;13.414;2023-05-19T04:30:39;12.55;;;4.43;;
35648;SDS011;21768;48.562;13.414;2023-05-19T04:33:06;16.48;;;4.05;;
35648;SDS011;21768;48.562;13.414;2023-05-19T04:35:32;19.02;;;4.60;;
35648;SDS011;21768;48.562;13.414;2023-05-19T04:37:57;8.35;;;3.70;;
35648;SDS011;21768;48.562;13.414;2023-05-19T04:40:22;11.10;;;4.20;;
35648;SDS011;21768;48.562;13.414;2023-05-19T04:42:48;13.23;;;3.80;;
35648;SDS011;21768;48.562;13.414;2023-05-19T04:45:16;8.98;;;3.78;;
35648;SDS011;21768;48.562;13.414;2023-05-19T04:47:42;10.30;;;3.85;;
35648;SDS011;21768;48.562;13.414;2023-05-19T04:50:08;9.18;;;3.90;;
35648;SDS011;21768;48.562;13.414;2023-05-19T04:52:35;12.57;;;4.20;;
35648;SDS011;21768;48.562;13.414;2023-05-19T04:55:01;10.02;;;3.65;;
35648;SDS011;21768;48.562;13.414;2023-05-19T04:57:27;9.77;;;3.70;;
35648;SDS011;21768;48.562;13.414;2023-05-19T04:59:52;7.25;;;3.35;;
35648;SDS011;21768;48.562;13.414;2023-05-19T05:02:23;12.02;;;4.00;;
35648;SDS011;21768;48.562;13.414;2023-05-19T05:04:49;7.97;;;3.45;;
35648;SDS011;21768;48.562;13.414;2023-05-19T05:07:14;7.55;;;3.55;;
35648;SDS011;21768;48.562;13.414;2023-05-19T05:09:40;13.75;;;4.20;;
35648;SDS011;21768;48.562;13.414;2023-05-19T05:12:05;9.27;;;3.63;;
35648;SDS011;21768;48.562;13.414;2023-05-19T05:14:32;13.15;;;3.90;;
35648;SDS011;21768;48.562;13.414;2023-05-19T05:16:58;10.50;;;3.92;;
35648;SDS011;21768;48.562;13.414;2023-05-19T05:19:23;15.35;;;3.85;;
35648;SDS011;21768;48.562;13.414;2023-05-19T05:21:49;12.40;;;4.70;;
35648;SDS011;21768;48.562;13.414;2023-05-19T05:24:15;10.05;;;3.70;;
35648;SDS011;21768;48.562;13.414;2023-05-19T05:26:40;9.07;;;3.47;;
35648;SDS011;21768;48.562;13.414;2023-05-19T05:29:08;10.02;;;3.80;;
35648;SDS011;21768;48.562;13.414;2023-05-19T05:31:34;5.82;;;3.42;;
35648;SDS011;21768;48.562;13.414;2023-05-19T05:34:00;7.18;;;3.47;;
35648;SDS011;21768;48.562;13.414;2023-05-19T05:36:26;12.32;;;3.95;;
35648;SDS011;21768;48.562;13.414;2023-05-19T05:38:52;11.32;;;3.55;;
35648;SDS011;21768;48.562;13.414;2023-05-19T05:41:17;13.05;;;3.90;;
35648;SDS011;21768;48.562;13.414;2023-05-19T05:43:42;9.40;;;3.55;;
35648;SDS011;21768;48.562;13.414;2023-05-19T05:46:08;13.23;;;3.97;;
35648;SDS011;21768;48.562;13.414;2023-05-19T05:48:33;12.38;;;3.97;;
35648;SDS011;21768;48.562;13.414;2023-05-19T05:50:59;10.30;;;3.75;;
35648;SDS011;21768;48.562;13.414;2023-05-19T05:53:25;9.05;;;3.55;;
35648;SDS011;21768;48.562;13.414;2023-05-19T05:55:54;16.13;;;3.75;;
35648;SDS011;21768;48.562;13.414;2023-05-19T05:58:19;10.93;;;3.80;;
35648;SDS011;21768;48.562;13.414;2023-05-19T06:00:45;11.18;;;3.70;;
35648;SDS011;21768;48.562;13.414;2023-05-19T06:03:12;10.35;;;3.70;;
35648;SDS011;21768;48.562;13.414;2023-05-19T06:05:38;10.18;;;3.58;;
35648;SDS011;21768;48.562;13.414;2023-05-19T06:08:04;8.70;;;3.38;;
35648;SDS011;21768;48.562;13.414;2023-05-19T06:10:30;8.02;;;3.50;;
35648;SDS011;21768;48.562;13.414;2023-05-19T06:12:56;8.63;;;3.60;;
35648;SDS011;21768;48.562;13.414;2023-05-19T06:15:21;10.95;;;3.97;;
35648;SDS011;21768;48.562;13.414;2023-05-19T06:17:46;12.48;;;3.42;;
35648;SDS011;21768;48.562;13.414;2023-05-19T06:20:12;12.23;;;4.00;;
35648;SDS011;21768;48.562;13.414;2023-05-19T06:22:37;7.63;;;3.75;;
35648;SDS011;21768;48.562;13.414;2023-05-19T06:25:03;13.65;;;3.60;;
35648;SDS011;21768;48.562;13.414;2023-05-19T06:27:30;12.70;;;4.13;;
35648;SDS011;21768;48.562;13.414;2023-05-19T06:29:55;12.82;;;3.35;;
35648;SDS011;21768;48.562;13.414;2023-05-19T06:32:20;8.07;;;3.40;;
35648;SDS011;21768;48.562;13.414;2023-05-19T06:34:46;10.07;;;3.50;;
35648;SDS011;21768;48.562;13.414;2023-05-19T06:37:18;13.15;;;3.35;;
35648;SDS011;21768;48.562;13.414;2023-05-19T06:39:45;13.68;;;3.40;;
35648;SDS011;21768;48.562;13.414;2023-05-19T06:42:11;11.05;;;3.25;;
35648;SDS011;21768;48.562;13.414;2023-05-19T06:44:36;16.50;;;5.82;;
35648;SDS011;21768;48.562;13.414;2023-05-19T06:47:01;8.82;;;3.33;;
35648;SDS011;21768;48.562;13.414;2023-05-19T06:49:27;6.00;;;3.30;;
35648;SDS011;21768;48.562;13.414;2023-05-19T06:51:53;11.13;;;3.25;;
35648;SDS011;21768;48.562;13.414;2023-05-19T06:54:18;12.60;;;2.83;;
35648;SDS011;21768;48.562;13.414;2023-05-19T06:56:44;5.05;;;2.60;;
35648;SDS011;21768;48.562;13.414;2023-05-19T06:59:09;5.60;;;2.67;;
35648;SDS011;21768;48.562;13.414;2023-05-19T07:01:34;4.18;;;2.60;;
35648;SDS011;21768;48.562;13.414;2023-05-19T07:04:00;4.43;;;2.70;;
35648;SDS011;21768;48.562;13.414;2023-05-19T07:06:25;4.00;;;2.67;;
35648;SDS011;21768;48.562;13.414;2023-05-19T07:08:51;4.85;;;2.30;;
35648;SDS011;21768;48.562;13.414;2023-05-19T07:11:16;6.18;;;3.15;;
35648;SDS011;21768;48.562;13.414;2023-05-19T07:13:41;5.72;;;2.75;;
35648;SDS011;21768;48.562;13.414;2023-05-19T07:16:07;6.28;;;2.60;;
35648;SDS011;21768;48.562;13.414;2023-05-19T07:18:32;8.27;;;2.60;;
35648;SDS011;21768;48.562;13.414;2023-05-19T07:20:57;6.32;;;2.97;;
35648;SDS011;21768;48.562;13.414;2023-05-19T07:23:23;6.85;;;2.85;;
35648;SDS011;21768;48.562;13.414;2023-05-19T07:25:48;6.63;;;2.60;;
35648;SDS011;21768;48.562;13.414;2023-05-19T07:28:14;5.40;;;2.50;;
35648;SDS011;21768;48.562;13.414;2023-05-19T07:30:39;8.65;;;2.47;;
35648;SDS011;21768;48.562;13.414;2023-05-19T07:33:05;6.97;;;2.53;;
35648;SDS011;21768;48.562;13.414;2023-05-19T07:35:30;6.40;;;3.15;;
35648;SDS011;21768;48.562;13.414;2023-05-19T07:37:56;7.25;;;3.58;;
35648;SDS011;21768;48.562;13.414;2023-05-19T07:40:21;7.78;;;3.00;;
35648;SDS011;21768;48.562;13.414;2023-05-19T07:42:48;10.88;;;2.95;;
35648;SDS011;21768;48.562;13.414;2023-05-19T07:45:14;9.35;;;2.80;;
35648;SDS011;21768;48.562;13.414;2023-05-19T07:47:39;7.07;;;2.95;;
35648;SDS011;21768;48.562;13.414;2023-05-19T07:50:05;10.52;;;2.85;;
35648;SDS011;21768;48.562;13.414;2023-05-19T07:52:31;5.95;;;2.75;;
35648;SDS011;21768;48.562;13.414;2023-05-19T07:54:57;8.63;;;3.30;;
35648;SDS011;21768;48.562;13.414;2023-05-19T07:57:23;6.05;;;2.97;;
35648;SDS011;21768;48.562;13.414;2023-05-19T07:59:48;6.63;;;2.92;;
35648;SDS011;21768;48.562;13.414;2023-05-19T08:02:13;9.93;;;3.95;;
35648;SDS011;21768;48.562;13.414;2023-05-19T08:04:39;11.07;;;3.72;;
35648;SDS011;21768;48.562;13.414;2023-05-19T08:07:05;6.45;;;3.05;;
35648;SDS011;21768;48.562;13.414;2023-05-19T08:09:30;7.18;;;3.00;;
35648;SDS011;21768;48.562;13.414;2023-05-19T08:11:55;7.60;;;3.08;;
35648;SDS011;21768;48.562;13.414;2023-05-19T08:14:21;5.22;;;3.10;;
35648;SDS011;21768;48.562;13.414;2023-05-19T08:16:47;5.50;;;2.72;;
35648;SDS011;21768;48.562;13.414;2023-05-19T08:19:13;5.53;;;3.20;;
35648;SDS011;21768;48.562;13.414;2023-05-19T08:21:38;10.00;;;2.90;;
35648;SDS011;21768;48.562;13.414;2023-05-19T08:24:04;8.13;;;2.65;;
35648;SDS011;21768;48.562;13.414;2023-05-19T08:26:30;8.75;;;3.10;;
35648;SDS011;21768;48.562;13.414;2023-05-19T08:28:55;8.35;;;3.22;;
35648;SDS011;21768;48.562;13.414;2023-05-19T08:31:21;8.85;;;3.00;;
35648;SDS011;21768;48.562;13.414;2023-05-19T08:33:47;5.72;;;3.08;;
35648;SDS011;21768;48.562;13.414;2023-05-19T08:36:12;7.57;;;3.08;;
35648;SDS011;21768;48.562;13.414;2023-05-19T08:38:38;6.25;;;3.10;;
35648;SDS011;21768;48.562;13.414;2023-05-19T08:41:03;6.07;;;2.72;;
35648;SDS011;21768;48.562;13.414;2023-05-19T08:43:30;5.93;;;3.00;;
35648;SDS011;21768;48.562;13.414;2023-05-19T08:45:55;8.85;;;3.20;;
35648;SDS011;21768;48.562;13.414;2023-05-19T08:48:23;5.38;;;3.03;;
35648;SDS011;21768;48.562;13.414;2023-05-19T08:50:55;6.85;;;2.97;;
35648;SDS011;21768;48.562;13.414;2023-05-19T08:53:34;9.52;;;3.42;;
35648;SDS011;21768;48.562;13.414;2023-05-19T08:56:09;4.35;;;2.92;;
35648;SDS011;21768;48.562;13.414;2023-05-19T08:58:40;6.10;;;3.28;;
35648;SDS011;21768;48.562;13.414;2023-05-19T09:01:08;6.10;;;3.17;;
35648;SDS011;21768;48.562;13.414;2023-05-19T09:03:35;5.40;;;3.35;;
35648;SDS011;21768;48.562;13.414;2023-05-19T09:06:05;9.05;;;2.72;;
35648;SDS011;21768;48.562;13.414;2023-05-19T09:08:36;7.25;;;2.97;;
35648;SDS011;21768;48.562;13.414;2023-05-19T09:11:02;5.70;;;2.80;;
35648;SDS011;21768;48.562;13.414;2023-05-19T09:13:27;5.03;;;2.80;;
35648;SDS011;21768;48.562;13.414;2023-05-19T09:15:53;5.85;;;3.20;;
35648;SDS011;21768;48.562;13.414;2023-05-19T09:18:20;7.18;;;2.85;;
35648;SDS011;21768;48.562;13.414;2023-05-19T09:20:45;4.22;;;2.75;;
35648;SDS011;21768;48.562;13.414;2023-05-19T09:23:13;4.20;;;2.72;;
35648;SDS011;21768;48.562;13.414;2023-05-19T09:25:47;7.50;;;3.13;;
35648;SDS011;21768;48.562;13.414;2023-05-19T09:28:13;12.13;;;6.72;;
35648;SDS011;21768;48.562;13.414;2023-05-19T09:30:46;9.05;;;2.80;;
35648;SDS011;21768;48.562;13.414;2023-05-19T09:33:15;4.97;;;2.60;;
35648;SDS011;21768;48.562;13.414;2023-05-19T09:35:46;9.52;;;2.65;;
35648;SDS011;21768;48.562;13.414;2023-05-19T09:38:16;5.05;;;2.60;;
35648;SDS011;21768;48.562;13.414;2023-05-19T09:40:42;7.03;;;3.10;;
35648;SDS011;21768;48.562;13.414;2023-05-19T09:43:08;7.28;;;3.42;;
35648;SDS011;21768;48.562;13.414;2023-05-19T09:45:33;5.53;;;3.03;;
35648;SDS011;21768;48.562;13.414;2023-05-19T09:48:02;7.55;;;3.10;;
35648;SDS011;21768;48.562;13.414;2023-05-19T09:50:28;7.63;;;3.10;;
35648;SDS011;21768;48.562;13.414;2023-05-19T09:52:54;4.55;;;2.42;;
35648;SDS011;21768;48.562;13.414;2023-05-19T09:55:21;4.53;;;2.60;;
35648;SDS011;21768;48.562;13.414;2023-05-19T09:57:53;14.15;;;8.20;;
35648;SDS011;21768;48.562;13.414;2023-05-19T10:00:20;7.32;;;4.93;;
35648;SDS011;21768;48.562;13.414;2023-05-19T10:02:47;6.65;;;2.80;;
35648;SDS011;21768;48.562;13.414;2023-05-19T10:05:17;11.10;;;5.53;;
35648;SDS011;21768;48.562;13.414;2023-05-19T10:07:45;5.28;;;2.60;;
35648;SDS011;21768;48.562;13.414;2023-05-19T10:10:13;8.27;;;4.60;;
35648;SDS011;21768;48.562;13.414;2023-05-19T10:12:39;8.20;;;4.28;;
35648;SDS011;21768;48.562;13.414;2023-05-19T10:15:08;6.00;;;3.00;;
35648;SDS011;21768;48.562;13.414;2023-05-19T10:17:36;6.53;;;3.78;;
35648;SDS011;21768;48.562;13.414;2023-05-19T10:20:03;3.75;;;2.38;;
35648;SDS011;21768;48.562;13.414;2023-05-19T10:22:31;4.95;;;2.80;;
35648;SDS011;21768;48.562;13.414;2023-05-19T10:24:57;7.03;;;3.53;;
35648;SDS011;21768;48.562;13.414;2023-05-19T10:27:23;7.03;;;4.20;;
35648;SDS011;21768;48.562;13.414;2023-05-19T10:29:52;9.45;;;3.95;;
35648;SDS011;21768;48.562;13.414;2023-05-19T10:32:22;5.40;;;2.58;;
35648;SDS011;21768;48.562;13.414;2023-05-19T10:37:18;8.18;;;4.00;;
35648;SDS011;21768;48.562;13.414;2023-05-19T10:39:45;4.95;;;2.53;;
35648;SDS011;21768;48.562;13.414;2023-05-19T10:42:15;5.72;;;3.25;;
35648;SDS011;21768;48.562;13.414;2023-05-19T10:47:59;9.68;;;2.88;;
35648;SDS011;21768;48.562;13.414;2023-05-19T10:50:25;4.90;;;2.80;;
35648;SDS011;21768;48.562;13.414;2023-05-19T10:52:54;5.95;;;2.90;;
35648;SDS011;21768;48.562;13.414;2023-05-19T10:55:43;7.28;;;3.10;;
35648;SDS011;21768;48.562;13.414;2023-05-19T10:58:35;5.75;;;2.95;;
35648;SDS011;21768;48.562;13.414;2023-05-19T11:01:05;3.83;;;2.70;;
35648;SDS011;21768;48.562;13.414;2023-05-19T11:03:33;4.13;;;2.45;;
35648;SDS011;21768;48.562;13.414;2023-05-19T11:08:56;4.03;;;2.75;;
35648;SDS011;21768;48.562;13.414;2023-05-19T11:11:43;9.53;;;2.73;;
35648;SDS011;21768;48.562;13.414;2023-05-19T11:14:10;7.03;;;3.20;;
35648;SDS011;21768;48.562;13.414;2023-05-19T11:16:39;3.95;;;2.90;;
35648;SDS011;21768;48.562;13.414;2023-05-19T11:19:15;5.95;;;2.50;;
35648;SDS011;21768;48.562;13.414;2023-05-19T11:21:50;4.03;;;2.55;;
35648;SDS011;21768;48.562;13.414;2023-05-19T11:24:38;5.32;;;2.70;;
35648;SDS011;21768;48.562;13.414;2023-05-19T11:27:18;4.68;;;3.08;;
35648;SDS011;21768;48.562;13.414;2023-05-19T11:29:44;4.00;;;2.63;;
35648;SDS011;21768;48.562;13.414;2023-05-19T11:32:12;4.00;;;2.28;;
35648;SDS011;21768;48.562;13.414;2023-05-19T11:34:38;4.25;;;2.45;;
35648;SDS011;21768;48.562;13.414;2023-05-19T11:37:05;5.25;;;2.58;;
35648;SDS011;21768;48.562;13.414;2023-05-19T11:39:31;5.63;;;2.60;;
35648;SDS011;21768;48.562;13.414;2023-05-19T11:41:57;8.25;;;2.55;;
35648;SDS011;21768;48.562;13.414;2023-05-19T11:44:22;4.25;;;2.35;;
35648;SDS011;21768;48.562;13.414;2023-05-19T11:46:48;6.05;;;2.95;;
35648;SDS011;21768;48.562;13.414;2023-05-19T11:49:14;5.03;;;2.72;;
35648;SDS011;21768;48.562;13.414;2023-05-19T11:51:43;10.70;;;2.78;;
35648;SDS011;21768;48.562;13.414;2023-05-19T11:54:09;7.75;;;2.50;;
35648;SDS011;21768;48.562;13.414;2023-05-19T11:56:39;6.10;;;2.40;;
35648;SDS011;21768;48.562;13.414;2023-05-19T11:59:07;3.55;;;2.45;;
35648;SDS011;21768;48.562;13.414;2023-05-19T12:01:33;6.10;;;2.90;;
35648;SDS011;21768;48.562;13.414;2023-05-19T12:04:00;5.32;;;2.45;;
35648;SDS011;21768;48.562;13.414;2023-05-19T12:06:26;4.55;;;2.42;;
35648;SDS011;21768;48.562;13.414;2023-05-19T12:08:53;4.13;;;2.63;;
35648;SDS011;21768;48.562;13.414;2023-05-19T12:11:19;5.43;;;2.60;;
35648;SDS011;21768;48.562;13.414;2023-05-19T12:13:45;6.93;;;2.50;;
35648;SDS011;21768;48.562;13.414;2023-05-19T12:16:11;4.32;;;2.67;;
35648;SDS011;21768;48.562;13.414;2023-05-19T12:18:37;7.38;;;2.60;;
35648;SDS011;21768;48.562;13.414;2023-05-19T12:21:03;4.05;;;2.80;;
35648;SDS011;21768;48.562;13.414;2023-05-19T12:23:29;5.28;;;2.65;;
35648;SDS011;21768;48.562;13.414;2023-05-19T12:25:56;3.55;;;2.38;;
35648;SDS011;21768;48.562;13.414;2023-05-19T12:28:22;4.97;;;2.28;;
35648;SDS011;21768;48.562;13.414;2023-05-19T12:30:48;4.60;;;2.63;;
35648;SDS011;21768;48.562;13.414;2023-05-19T12:33:16;4.63;;;2.22;;
35648;SDS011;21768;48.562;13.414;2023-05-19T12:35:43;6.50;;;2.50;;
35648;SDS011;21768;48.562;13.414;2023-05-19T12:38:08;7.20;;;3.17;;
35648;SDS011;21768;48.562;13.414;2023-05-19T12:40:34;6.68;;;2.70;;
35648;SDS011;21768;48.562;13.414;2023-05-19T12:43:00;4.47;;;2.33;;
35648;SDS011;21768;48.562;13.414;2023-05-19T12:45:26;6.63;;;2.50;;
35648;SDS011;21768;48.562;13.414;2023-05-19T12:47:52;4.05;;;2.63;;
35648;SDS011;21768;48.562;13.414;2023-05-19T12:50:17;9.30;;;2.67;;
35648;SDS011;21768;48.562;13.414;2023-05-19T12:52:47;4.05;;;2.40;;
35648;SDS011;21768;48.562;13.414;2023-05-19T12:55:17;4.63;;;2.53;;
35648;SDS011;21768;48.562;13.414;2023-05-19T12:57:49;4.97;;;2.33;;
35648;SDS011;21768;48.562;13.414;2023-05-19T13:00:21;3.72;;;2.60;;
35648;SDS011;21768;48.562;13.414;2023-05-19T13:02:53;5.32;;;2.25;;
35648;SDS011;21768;48.562;13.414;2023-05-19T13:05:27;5.70;;;2.30;;
35648;SDS011;21768;48.562;13.414;2023-05-19T13:07:54;3.28;;;2.25;;
35648;SDS011;21768;48.562;13.414;2023-05-19T13:10:23;5.25;;;2.28;;
35648;SDS011;21768;48.562;13.414;2023-05-19T13:12:51;10.00;;;2.08;;
35648;SDS011;21768;48.562;13.414;2023-05-19T13:15:18;3.05;;;2.00;;
35648;SDS011;21768;48.562;13.414;2023-05-19T13:17:44;4.18;;;2.60;;
35648;SDS011;21768;48.562;13.414;2023-05-19T13:20:10;3.90;;;2.00;;
35648;SDS011;21768;48.562;13.414;2023-05-19T13:22:36;3.20;;;2.33;;
35648;SDS011;21768;48.562;13.414;2023-05-19T13:25:02;5.68;;;2.28;;
35648;SDS011;21768;48.562;13.414;2023-05-19T13:27:27;3.90;;;2.10;;
35648;SDS011;21768;48.562;13.414;2023-05-19T13:29:52;3.15;;;2.17;;
35648;SDS011;21768;48.562;13.414;2023-05-19T13:32:18;3.38;;;2.10;;
35648;SDS011;21768;48.562;13.414;2023-05-19T13:34:43;4.38;;;2.03;;
35648;SDS011;21768;48.562;13.414;2023-05-19T13:37:09;3.55;;;2.13;;
35648;SDS011;21768;48.562;13.414;2023-05-19T13:39:35;4.72;;;2.40;;
35648;SDS011;21768;48.562;13.414;2023-05-19T13:42:01;5.00;;;2.35;;
35648;SDS011;21768;48.562;13.414;2023-05-19T13:44:26;3.92;;;2.05;;
35648;SDS011;21768;48.562;13.414;2023-05-19T13:46:52;7.03;;;2.28;;
35648;SDS011;21768;48.562;13.414;2023-05-19T13:49:17;4.93;;;2.28;;
35648;SDS011;21768;48.562;13.414;2023-05-19T13:51:43;4.30;;;2.00;;
35648;SDS011;21768;48.562;13.414;2023-05-19T13:54:08;7.85;;;1.90;;
35648;SDS011;21768;48.562;13.414;2023-05-19T13:56:34;4.40;;;2.15;;
35648;SDS011;21768;48.562;13.414;2023-05-19T13:59:00;3.40;;;2.08;;
35648;SDS011;21768;48.562;13.414;2023-05-19T14:01:25;3.25;;;2.17;;
35648;SDS011;21768;48.562;13.414;2023-05-19T14:03:51;2.58;;;1.90;;
35648;SDS011;21768;48.562;13.414;2023-05-19T14:06:16;6.18;;;2.40;;
35648;SDS011;21768;48.562;13.414;2023-05-19T14:08:41;4.07;;;2.42;;
35648;SDS011;21768;48.562;13.414;2023-05-19T14:11:07;4.40;;;2.22;;
35648;SDS011;21768;48.562;13.414;2023-05-19T14:13:32;3.40;;;2.13;;
35648;SDS011;21768;48.562;13.414;2023-05-19T14:15:58;3.47;;;2.20;;
35648;SDS011;21768;48.562;13.414;2023-05-19T14:18:23;3.75;;;2.03;;
35648;SDS011;21768;48.562;13.414;2023-05-19T14:20:48;5.80;;;2.10;;
35648;SDS011;21768;48.562;13.414;2023-05-19T14:23:14;2.60;;;1.90;;
35648;SDS011;21768;48.562;13.414;2023-05-19T14:25:41;3.50;;;2.42;;
35648;SDS011;21768;48.562;13.414;2023-05-19T14:28:06;5.82;;;2.70;;
35648;SDS011;21768;48.562;13.414;2023-05-19T14:30:32;7.93;;;2.25;;
35648;SDS011;21768;48.562;13.414;2023-05-19T14:32:57;3.53;;;2.20;;
35648;SDS011;21768;48.562;13.414;2023-05-19T14:35:22;2.60;;;1.92;;
35648;SDS011;21768;48.562;13.414;2023-05-19T14:37:48;3.03;;;1.95;;
35648;SDS011;21768;48.562;13.414;2023-05-19T14:40:13;6.93;;;2.30;;
35648;SDS011;21768;48.562;13.414;2023-05-19T14:42:39;4.55;;;2.22;;
35648;SDS011;21768;48.562;13.414;2023-05-19T14:45:04;5.53;;;2.20;;
35648;SDS011;21768;48.562;13.414;2023-05-19T14:47:30;2.33;;;1.65;;
35648;SDS011;21768;48.562;13.414;2023-05-19T14:49:55;5.80;;;2.20;;
35648;SDS011;21768;48.562;13.414;2023-05-19T14:52:21;5.05;;;1.90;;
35648;SDS011;21768;48.562;13.414;2023-05-19T14:54:46;2.63;;;1.63;;
35648;SDS011;21768;48.562;13.414;2023-05-19T14:57:12;3.33;;;1.92;;
35648;SDS011;21768;48.562;13.414;2023-05-19T14:59:37;5.32;;;1.70;;
35648;SDS011;21768;48.562;13.414;2023-05-19T15:02:03;3.25;;;2.03;;